Time;durP1;ratioP1;P1;durP2;ratioP2;P2;SDS_P1;SDS_P2;PMS_P1;PMS_P2;Temp;Humidity;BMP_temperature;BMP_pressure;BME280_temperature;BME280_humidity;BME280_pressure;Samples;Min_cycle;Max_cycle;Signal;HPM_P1;HPM_P2
2023/07/11 00:01:07;;;;;;;6.40;3.00;;;19.60;99.20;;;;;;5011551;28;20429;-66
2023/07/11 00:03:33;;;;;;;7.88;3.20;;;19.50;99.10;;;;;;5005193;28;20413;-65
2023/07/11 00:06:04;;;;;;;6.27;2.90;;;19.60;99.00;;;;;;5006445;28;20413;-66
2023/07/11 00:08:31;;;;;;;7.75;3.05;;;19.60;98.90;;;;;;5005390;28;20428;-66
2023/07/11 00:10:56;;;;;;;7.82;3.00;;;19.60;98.90;;;;;;5022133;28;20923;-66
2023/07/11 00:13:22;;;;;;;7.23;2.90;;;19.60;98.80;;;;;;5009914;28;20493;-66
2023/07/11 00:16:04;;;;;;;7.27;2.80;;;19.60;98.80;;;;;;5008188;28;20762;-66
2023/07/11 00:18:29;;;;;;;5.82;2.50;;;19.50;98.80;;;;;;4985902;28;20866;-66
2023/07/11 00:20:55;;;;;;;7.13;2.83;;;19.50;98.90;;;;;;4988716;28;20420;-66
2023/07/11 00:23:21;;;;;;;6.03;2.53;;;19.50;98.90;;;;;;4986727;28;20405;-66
2023/07/11 00:25:47;;;;;;;6.35;2.60;;;19.50;99.00;;;;;;4972793;28;20414;-66
2023/07/11 00:28:13;;;;;;;6.67;2.47;;;19.50;99.10;;;;;;4985594;28;20774;-66
2023/07/11 00:30:41;;;;;;;8.97;2.87;;;19.50;99.30;;;;;;5004574;28;20454;-67
2023/07/11 00:33:08;;;;;;;6.85;2.85;;;19.60;99.30;;;;;;4999591;28;20450;-66
2023/07/11 00:35:34;;;;;;;7.53;2.60;;;19.60;99.20;;;;;;4978030;28;21627;-66
2023/07/11 00:38:00;;;;;;;5.78;2.40;;;19.50;99.30;;;;;;5009896;28;20409;-65
2023/07/11 00:40:25;;;;;;;8.43;2.60;;;19.60;99.40;;;;;;4984588;28;20674;-66
2023/07/11 00:42:53;;;;;;;6.10;2.50;;;19.50;99.40;;;;;;4993435;28;20415;-66
2023/07/11 00:45:52;;;;;;;5.65;2.30;;;19.50;99.60;;;;;;4994660;28;20773;-67
2023/07/11 00:48:22;;;;;;;7.30;2.58;;;19.50;99.70;;;;;;5005462;28;20413;-64
2023/07/11 00:50:49;;;;;;;5.05;2.30;;;19.50;99.80;;;;;;5004889;28;20449;-66
2023/07/11 00:53:15;;;;;;;6.45;2.78;;;19.50;99.80;;;;;;5011445;28;20421;-65
2023/07/11 00:55:42;;;;;;;8.95;2.70;;;19.60;99.70;;;;;;4995529;28;20454;-66
2023/07/11 00:58:08;;;;;;;7.82;2.40;;;19.50;99.70;;;;;;5014934;28;20421;-66
2023/07/11 01:00:34;;;;;;;6.40;2.60;;;19.50;99.70;;;;;;5001312;28;20436;-66
2023/07/11 01:03:00;;;;;;;9.13;2.83;;;19.50;99.70;;;;;;5007084;28;20470;-66
2023/07/11 01:05:25;;;;;;;7.07;2.80;;;19.50;99.70;;;;;;5024602;28;20906;-66
2023/07/11 01:07:51;;;;;;;8.03;2.83;;;19.50;99.80;;;;;;5006154;28;20803;-66
2023/07/11 01:10:17;;;;;;;7.73;2.80;;;19.50;99.90;;;;;;4970403;28;20421;-64
2023/07/11 01:12:45;;;;;;;8.13;2.80;;;19.50;99.90;;;;;;5002152;28;20413;-66
2023/07/11 01:15:11;;;;;;;7.32;2.70;;;19.50;99.90;;;;;;5006659;28;20401;-63
2023/07/11 01:17:37;;;;;;;7.17;2.50;;;19.40;99.90;;;;;;5010883;28;20478;-66
2023/07/11 01:20:06;;;;;;;7.50;2.85;;;19.40;99.90;;;;;;5009981;28;20416;-66
2023/07/11 01:22:34;;;;;;;7.60;2.87;;;19.40;99.90;;;;;;5064682;28;20930;-66
2023/07/11 01:25:11;;;;;;;5.90;2.60;;;19.40;99.90;;;;;;5003195;28;20471;-66
2023/07/11 01:27:39;;;;;;;5.72;2.85;;;19.40;99.90;;;;;;5072651;28;20409;-66
2023/07/11 01:30:07;;;;;;;6.22;2.70;;;19.30;99.90;;;;;;5020517;28;20413;-66
2023/07/11 01:32:33;;;;;;;7.88;3.00;;;19.30;99.90;;;;;;4982657;28;20438;-66
2023/07/11 01:34:59;;;;;;;8.90;2.90;;;19.30;99.90;;;;;;4993747;28;20444;-66
2023/07/11 01:37:24;;;;;;;5.70;2.60;;;19.30;99.90;;;;;;4987733;28;20423;-66
2023/07/11 01:39:50;;;;;;;7.80;2.80;;;19.20;99.90;;;;;;4990529;28;20417;-66
2023/07/11 01:42:16;;;;;;;7.88;2.80;;;19.20;99.90;;;;;;5007615;28;20474;-66
2023/07/11 01:44:42;;;;;;;7.00;2.60;;;19.20;99.90;;;;;;5005032;28;20556;-66
2023/07/11 01:47:08;;;;;;;8.23;3.00;;;19.10;99.90;;;;;;5003005;28;20413;-66
2023/07/11 01:49:34;;;;;;;6.88;2.63;;;19.10;99.90;;;;;;5008592;28;20405;-65
2023/07/11 01:52:09;;;;;;;7.37;2.73;;;19.10;99.90;;;;;;4990527;28;20424;-66
2023/07/11 01:54:35;;;;;;;8.27;2.93;;;19.10;99.90;;;;;;5006666;28;20500;-66
2023/07/11 01:57:00;;;;;;;6.53;2.80;;;19.10;99.90;;;;;;4989491;28;20786;-66
2023/07/11 01:59:27;;;;;;;8.27;2.83;;;19.00;99.90;;;;;;5005550;28;20774;-65
2023/07/11 02:01:53;;;;;;;6.10;2.55;;;19.00;99.90;;;;;;4989580;28;20843;-66
2023/07/11 02:04:21;;;;;;;7.60;2.78;;;19.00;99.90;;;;;;5009103;28;20409;-66
2023/07/11 02:06:49;;;;;;;6.40;2.88;;;18.90;99.90;;;;;;5019558;28;20739;-66
2023/07/11 02:09:14;;;;;;;6.60;2.83;;;18.90;99.90;;;;;;4966597;28;20417;-66
2023/07/11 02:11:40;;;;;;;6.17;2.63;;;18.80;99.90;;;;;;5010039;28;20421;-66
2023/07/11 02:14:05;;;;;;;6.07;2.70;;;18.80;99.90;;;;;;5001571;28;20917;-66
2023/07/11 02:16:31;;;;;;;7.75;2.90;;;18.80;99.90;;;;;;5008766;28;20397;-65
2023/07/11 02:18:57;;;;;;;5.43;2.73;;;18.80;99.90;;;;;;5004957;28;20420;-65
2023/07/11 02:21:22;;;;;;;6.07;2.90;;;18.80;99.90;;;;;;5008655;28;20748;-65
2023/07/11 02:23:48;;;;;;;6.20;2.80;;;18.70;99.90;;;;;;5004387;28;20889;-65
2023/07/11 02:26:15;;;;;;;7.65;3.17;;;18.60;99.90;;;;;;5004929;28;20466;-65
2023/07/11 02:28:40;;;;;;;7.90;3.10;;;18.70;99.90;;;;;;5060672;28;20441;-65
2023/07/11 02:31:06;;;;;;;6.53;3.00;;;17.90;99.90;;;;;;5008320;28;20413;-65
2023/07/11 02:33:32;;;;;;;6.10;3.07;;;18.60;99.90;;;;;;4990573;28;20452;-65
2023/07/11 02:35:57;;;;;;;5.93;2.80;;;18.60;99.90;;;;;;5011375;28;20412;-65
2023/07/11 02:38:23;;;;;;;6.43;2.90;;;18.50;99.90;;;;;;5003718;28;20771;-65
2023/07/11 02:40:49;;;;;;;9.48;3.00;;;18.50;99.90;;;;;;5005777;28;20787;-65
2023/07/11 02:43:15;;;;;;;5.53;3.00;;;18.50;99.90;;;;;;5007587;28;20407;-65
2023/07/11 02:45:41;;;;;;;7.50;3.03;;;18.50;99.90;;;;;;4996826;28;20401;-65
2023/07/11 02:48:07;;;;;;;5.18;3.20;;;18.40;99.90;;;;;;5000269;28;20446;-65
2023/07/11 02:50:32;;;;;;;6.38;3.10;;;18.40;99.90;;;;;;5008195;28;20766;-65
2023/07/11 02:52:58;;;;;;;7.47;3.20;;;18.40;99.90;;;;;;4996859;28;20393;-65
2023/07/11 02:55:23;;;;;;;8.60;3.30;;;18.30;99.90;;;;;;5007274;28;20800;-65
2023/07/11 02:57:49;;;;;;;8.73;3.92;;;18.30;99.90;;;;;;5006854;28;20738;-65
2023/07/11 03:00:15;;;;;;;7.55;3.17;;;18.20;99.90;;;;;;5009976;28;20773;-65
2023/07/11 03:02:40;;;;;;;7.67;3.20;;;18.20;99.90;;;;;;4990024;28;20464;-65
2023/07/11 03:05:06;;;;;;;7.87;3.30;;;18.20;99.90;;;;;;5006353;28;20401;-65
2023/07/11 03:07:32;;;;;;;7.72;3.40;;;18.20;99.90;;;;;;5008353;28;20427;-65
2023/07/11 03:09:57;;;;;;;6.35;3.15;;;18.10;99.90;;;;;;5000523;28;20444;-65
2023/07/11 03:12:23;;;;;;;5.70;3.10;;;18.50;99.90;;;;;;5007584;28;20887;-65
2023/07/11 03:14:49;;;;;;;7.57;3.50;;;18.10;99.90;;;;;;4998656;28;20487;-65
2023/07/11 03:17:15;;;;;;;7.00;3.00;;;18.10;99.90;;;;;;4998992;28;20439;-65
2023/07/11 03:19:41;;;;;;;6.43;3.22;;;18.10;99.90;;;;;;5016171;28;20470;-65
2023/07/11 03:22:06;;;;;;;7.67;3.60;;;18.10;99.90;;;;;;5011306;28;20508;-65
2023/07/11 03:24:32;;;;;;;6.50;3.10;;;18.10;99.90;;;;;;5074449;28;20413;-65
2023/07/11 03:26:58;;;;;;;5.78;3.10;;;18.10;99.90;;;;;;5005979;28;20409;-65
2023/07/11 03:29:23;;;;;;;7.40;3.13;;;18.10;99.90;;;;;;4999521;28;20474;-65
2023/07/11 03:31:49;;;;;;;7.63;2.67;;;18.00;99.90;;;;;;5004556;28;20500;-65
2023/07/11 03:34:15;;;;;;;5.27;2.67;;;18.10;99.90;;;;;;4997787;28;20401;-65
2023/07/11 03:36:41;;;;;;;6.53;2.73;;;17.90;99.90;;;;;;4987773;28;20961;-65
2023/07/11 03:39:08;;;;;;;8.68;2.90;;;17.90;99.90;;;;;;5074547;28;20461;-65
2023/07/11 03:41:34;;;;;;;6.17;3.00;;;17.80;99.90;;;;;;5073896;28;20437;-65
2023/07/11 03:44:00;;;;;;;11.07;3.20;;;17.80;99.90;;;;;;4983552;28;20416;-65
2023/07/11 03:46:26;;;;;;;5.73;3.17;;;17.80;99.90;;;;;;5006226;28;20405;-65
2023/07/11 03:48:58;;;;;;;6.83;3.23;;;17.70;99.90;;;;;;5074747;28;20413;-65
2023/07/11 03:51:24;;;;;;;8.75;3.80;;;17.70;99.90;;;;;;4986249;28;20417;-65
2023/07/11 03:53:50;;;;;;;6.95;3.42;;;17.70;99.90;;;;;;4983281;28;20420;-65
2023/07/11 03:56:15;;;;;;;5.50;3.40;;;17.80;99.90;;;;;;5004387;28;20421;-66
2023/07/11 03:58:41;;;;;;;8.27;3.77;;;17.70;99.90;;;;;;5000700;28;20420;-65
2023/07/11 04:01:06;;;;;;;6.65;3.40;;;17.70;99.90;;;;;;5006046;28;20417;-67
2023/07/11 04:03:32;;;;;;;8.75;3.60;;;17.70;99.90;;;;;;5029360;28;20902;-66
2023/07/11 04:05:58;;;;;;;7.60;3.60;;;17.70;99.90;;;;;;5001295;28;20471;-66
2023/07/11 04:08:23;;;;;;;8.97;3.63;;;17.70;99.90;;;;;;5002717;28;20441;-66
2023/07/11 04:10:49;;;;;;;7.03;3.60;;;17.70;99.90;;;;;;4995742;28;20429;-66
2023/07/11 04:13:14;;;;;;;8.23;3.50;;;17.70;99.90;;;;;;4979374;28;20423;-66
2023/07/11 04:15:40;;;;;;;6.50;3.70;;;17.80;99.90;;;;;;5018699;28;20459;-66
2023/07/11 04:18:06;;;;;;;8.77;3.30;;;17.80;99.90;;;;;;4999251;28;20456;-66
2023/07/11 04:20:35;;;;;;;6.88;3.33;;;17.80;99.90;;;;;;4999595;28;20795;-66
2023/07/11 04:23:00;;;;;;;9.38;3.92;;;17.80;99.90;;;;;;5004764;28;20429;-66
2023/07/11 04:25:26;;;;;;;6.90;3.50;;;17.80;99.90;;;;;;4991403;28;20470;-66
2023/07/11 04:27:52;;;;;;;7.78;3.67;;;17.80;99.90;;;;;;4989007;28;20409;-66
2023/07/11 04:30:17;;;;;;;7.37;3.40;;;17.90;99.90;;;;;;4993779;28;20413;-66
2023/07/11 04:32:43;;;;;;;6.93;3.80;;;17.90;99.90;;;;;;4985295;28;20440;-66
2023/07/11 04:35:14;;;;;;;6.65;3.53;;;17.90;99.90;;;;;;5002802;28;20512;-65
2023/07/11 04:37:39;;;;;;;6.88;3.40;;;18.00;99.90;;;;;;5002129;28;20421;-66
2023/07/11 04:40:06;;;;;;;7.38;3.80;;;18.00;99.90;;;;;;4998671;28;20472;-66
2023/07/11 04:42:32;;;;;;;7.43;4.03;;;18.00;99.90;;;;;;4988202;28;20946;-66
2023/07/11 04:44:57;;;;;;;6.67;3.30;;;18.10;99.90;;;;;;4995913;28;20452;-66
2023/07/11 04:47:23;;;;;;;7.30;3.80;;;18.10;99.90;;;;;;4988233;28;20420;-66
2023/07/11 04:49:49;;;;;;;7.20;3.67;;;18.10;99.90;;;;;;4994137;28;20742;-66
2023/07/11 04:52:14;;;;;;;7.57;3.92;;;18.20;99.90;;;;;;4989672;28;20437;-66
2023/07/11 04:54:40;;;;;;;7.30;4.37;;;18.20;99.90;;;;;;5005674;28;20452;-66
2023/07/11 04:57:05;;;;;;;8.53;4.60;;;18.10;99.90;;;;;;4988137;28;20796;-66
2023/07/11 04:59:31;;;;;;;8.45;5.05;;;18.20;99.90;;;;;;4986955;28;20513;-66
2023/07/11 05:01:57;;;;;;;12.40;5.93;;;18.20;99.90;;;;;;5005692;28;20926;-66
2023/07/11 05:04:22;;;;;;;11.07;5.53;;;18.20;99.90;;;;;;5005612;28;20409;-66
2023/07/11 05:06:48;;;;;;;10.30;5.73;;;18.20;99.90;;;;;;5073246;28;20409;-66
2023/07/11 05:09:15;;;;;;;10.40;6.03;;;18.20;99.90;;;;;;4982403;28;20473;-66
2023/07/11 05:11:41;;;;;;;11.05;6.45;;;18.20;99.90;;;;;;5007035;28;20944;-66
2023/07/11 05:14:06;;;;;;;12.73;6.35;;;18.20;99.90;;;;;;5074801;28;20405;-66
2023/07/11 05:16:32;;;;;;;11.33;6.43;;;18.20;99.90;;;;;;5009235;28;21041;-66
2023/07/11 05:18:58;;;;;;;13.25;6.40;;;18.30;99.90;;;;;;5012682;28;20404;-66
2023/07/11 05:21:25;;;;;;;9.82;6.50;;;18.30;99.90;;;;;;4991930;28;20554;-66
2023/07/11 05:23:50;;;;;;;12.63;6.43;;;18.40;99.90;;;;;;5030606;28;20766;-66
2023/07/11 05:26:18;;;;;;;11.27;6.60;;;18.40;99.90;;;;;;5075827;28;20423;-66
2023/07/11 05:28:45;;;;;;;12.75;6.60;;;18.40;99.90;;;;;;4991472;28;20413;-66
2023/07/11 05:31:11;;;;;;;11.30;6.43;;;18.50;99.90;;;;;;4995141;28;20432;-66
2023/07/11 05:33:37;;;;;;;13.02;6.95;;;18.50;99.90;;;;;;5006872;28;20909;-66
2023/07/11 05:36:23;;;;;;;10.40;6.13;;;18.60;99.90;;;;;;4991473;28;20508;-66
2023/07/11 05:38:49;;;;;;;11.02;6.80;;;18.60;99.90;;;;;;5007933;28;20424;-65
2023/07/11 05:41:15;;;;;;;10.32;6.32;;;18.60;99.90;;;;;;5008626;28;20424;-68
2023/07/11 05:43:40;;;;;;;10.38;6.10;;;18.70;99.90;;;;;;4988685;28;20427;-69
2023/07/11 05:46:06;;;;;;;10.63;6.30;;;18.70;99.90;;;;;;5009417;28;20439;-66
2023/07/11 05:48:32;;;;;;;11.93;6.57;;;18.70;99.90;;;;;;4995521;28;20763;-64
2023/07/11 05:50:58;;;;;;;11.70;6.70;;;18.90;99.90;;;;;;5008525;28;20401;-69
2023/07/11 05:53:23;;;;;;;10.20;6.70;;;18.90;99.90;;;;;;4990822;28;20480;-64
2023/07/11 05:55:49;;;;;;;11.75;7.00;;;19.00;99.90;;;;;;4991210;28;20448;-65
2023/07/11 05:58:14;;;;;;;12.18;6.85;;;19.00;99.90;;;;;;5008651;28;20397;-64
2023/07/11 06:00:41;;;;;;;12.03;6.37;;;19.10;99.90;;;;;;5007854;28;20436;-64
2023/07/11 06:03:07;;;;;;;11.38;6.72;;;19.10;99.90;;;;;;5007483;28;20437;-69
2023/07/11 06:05:34;;;;;;;9.52;6.10;;;19.30;99.90;;;;;;5002825;28;20417;-64
2023/07/11 06:08:00;;;;;;;10.48;6.47;;;19.30;99.90;;;;;;5004482;28;20412;-65
2023/07/11 06:10:25;;;;;;;11.98;6.75;;;19.40;99.90;;;;;;5007465;28;20432;-67
2023/07/11 06:12:51;;;;;;;9.27;5.80;;;19.50;99.90;;;;;;5008995;28;20400;-64
2023/07/11 06:15:17;;;;;;;11.03;6.40;;;19.50;99.90;;;;;;5007955;28;20409;-65
2023/07/11 06:17:43;;;;;;;11.27;6.65;;;19.60;99.90;;;;;;4995428;28;20405;-64
2023/07/11 06:20:09;;;;;;;11.83;6.30;;;19.60;99.90;;;;;;5003330;28;20936;-65
2023/07/11 06:22:35;;;;;;;12.38;6.20;;;19.70;99.90;;;;;;4988583;28;20484;-64
2023/07/11 06:25:02;;;;;;;10.85;6.13;;;19.80;99.90;;;;;;5004116;28;20508;-64
2023/07/11 06:27:29;;;;;;;11.38;6.50;;;19.90;99.90;;;;;;5005244;28;21025;-65
2023/07/11 06:29:55;;;;;;;10.90;5.85;;;19.90;99.90;;;;;;4990719;28;20452;-64
2023/07/11 06:32:20;;;;;;;12.95;6.25;;;20.00;99.90;;;;;;5008336;28;20428;-65
2023/07/11 06:34:46;;;;;;;12.23;5.97;;;20.10;99.90;;;;;;5075872;28;20424;-66
2023/07/11 06:37:12;;;;;;;11.43;6.17;;;20.10;99.90;;;;;;5006943;28;20452;-68
2023/07/11 06:39:38;;;;;;;12.50;5.77;;;20.20;99.90;;;;;;4990047;28;20451;-64
2023/07/11 06:42:04;;;;;;;11.18;5.80;;;20.30;99.90;;;;;;5007413;28;20489;-64
2023/07/11 06:44:30;;;;;;;11.30;6.30;;;20.30;99.90;;;;;;5070513;28;20433;-64
2023/07/11 06:46:56;;;;;;;11.13;5.80;;;20.30;99.90;;;;;;4993618;28;20415;-69
2023/07/11 06:49:22;;;;;;;10.77;5.57;;;20.40;99.90;;;;;;5009067;28;20798;-64
2023/07/11 06:51:50;;;;;;;11.73;5.80;;;20.40;99.90;;;;;;5007649;28;20461;-64
2023/07/11 06:54:17;;;;;;;11.57;5.60;;;20.50;99.90;;;;;;4981551;28;20419;-65
2023/07/11 06:56:43;;;;;;;10.25;5.60;;;20.50;99.90;;;;;;5006713;28;20433;-67
2023/07/11 06:59:08;;;;;;;11.30;5.68;;;20.60;99.90;;;;;;5007965;28;20472;-64
2023/07/11 07:01:34;;;;;;;14.77;5.73;;;20.60;99.90;;;;;;5007437;28;20939;-65
2023/07/11 07:04:00;;;;;;;12.47;5.50;;;20.70;99.90;;;;;;5005752;28;20409;-66
2023/07/11 07:06:26;;;;;;;10.80;5.70;;;20.70;99.90;;;;;;5008625;28;20401;-65
2023/07/11 07:08:52;;;;;;;10.47;5.17;;;20.80;99.90;;;;;;4990653;28;20492;-67
2023/07/11 07:11:17;;;;;;;11.50;5.27;;;20.90;99.90;;;;;;4989940;28;20417;-64
2023/07/11 07:13:43;;;;;;;11.73;5.53;;;21.00;99.90;;;;;;5007637;28;20401;-66
2023/07/11 07:16:09;;;;;;;10.27;5.30;;;21.10;99.90;;;;;;5007628;28;20412;-64
2023/07/11 07:18:37;;;;;;;11.65;5.50;;;21.10;99.90;;;;;;5007828;28;20476;-64
2023/07/11 07:21:03;;;;;;;10.15;5.13;;;21.20;99.90;;;;;;4989592;28;20535;-64
2023/07/11 07:23:29;;;;;;;10.40;5.00;;;21.30;99.90;;;;;;5005014;28;20500;-69
2023/07/11 07:25:58;;;;;;;16.80;5.40;;;21.40;99.90;;;;;;4989830;28;20499;-65
2023/07/11 07:28:25;;;;;;;8.93;4.60;;;21.60;99.90;;;;;;5001934;28;20782;-69
2023/07/11 07:30:53;;;;;;;9.45;4.70;;;21.70;99.90;;;;;;4989647;28;20496;-64
2023/07/11 07:33:19;;;;;;;10.55;4.70;;;21.80;99.90;;;;;;5006617;28;20417;-65
2023/07/11 07:35:45;;;;;;;8.40;3.88;;;21.90;99.90;;;;;;5003629;28;20791;-64
2023/07/11 07:38:11;;;;;;;7.85;3.65;;;22.00;99.90;;;;;;4981642;28;20398;-66
2023/07/11 07:40:38;;;;;;;7.03;3.63;;;22.10;99.90;;;;;;4989539;28;20898;-64
2023/07/11 07:43:04;;;;;;;7.47;3.20;;;22.20;99.90;;;;;;5006866;28;20452;-69
2023/07/11 07:45:29;;;;;;;13.03;3.40;;;22.40;99.90;;;;;;5007031;28;20443;-65
2023/07/11 07:47:55;;;;;;;8.20;3.53;;;22.50;99.90;;;;;;5007094;28;20413;-64
2023/07/11 07:50:21;;;;;;;9.63;3.40;;;22.70;99.90;;;;;;4989501;28;20429;-64
2023/07/11 07:52:46;;;;;;;8.23;3.27;;;22.80;99.70;;;;;;5006548;28;20409;-64
2023/07/11 07:55:12;;;;;;;7.57;3.17;;;22.90;99.10;;;;;;5074405;28;20417;-67
2023/07/11 07:57:38;;;;;;;8.80;3.17;;;22.90;99.10;;;;;;5006679;28;20405;-68
2023/07/11 08:00:05;;;;;;;6.65;3.28;;;23.00;98.30;;;;;;5014495;28;20404;-64
2023/07/11 08:02:31;;;;;;;7.40;3.08;;;23.10;98.60;;;;;;5006629;28;20428;-68
2023/07/11 08:05:00;;;;;;;7.82;3.47;;;23.10;98.10;;;;;;5010511;28;20450;-65
2023/07/11 08:07:27;;;;;;;5.87;2.80;;;23.20;97.60;;;;;;5066156;28;20444;-64
2023/07/11 08:09:55;;;;;;;10.47;3.40;;;23.30;97.20;;;;;;5009400;28;20407;-70
2023/07/11 08:12:21;;;;;;;7.40;3.30;;;23.40;96.60;;;;;;4988918;28;20464;-67
2023/07/11 08:14:47;;;;;;;6.60;3.00;;;23.50;96.70;;;;;;5006197;28;20405;-68
2023/07/11 08:17:12;;;;;;;9.80;3.25;;;23.50;97.20;;;;;;5006788;28;20986;-69
2023/07/11 08:19:38;;;;;;;7.37;3.10;;;23.50;97.40;;;;;;5013602;28;20417;-65
2023/07/11 08:22:06;;;;;;;10.20;3.10;;;23.60;96.40;;;;;;5006239;28;20417;-64
2023/07/11 08:24:32;;;;;;;6.63;3.10;;;23.80;97.10;;;;;;4988894;28;20460;-65
2023/07/11 08:26:58;;;;;;;7.90;3.10;;;23.90;96.30;;;;;;5006533;28;20894;-71
2023/07/11 08:29:23;;;;;;;7.68;3.03;;;24.20;95.50;;;;;;5062590;28;20414;-65
2023/07/11 08:31:49;;;;;;;10.33;3.00;;;24.40;94.70;;;;;;4999834;28;20425;-67
2023/07/11 08:34:15;;;;;;;8.55;2.85;;;24.60;94.00;;;;;;5006207;28;20408;-64
2023/07/11 08:36:41;;;;;;;6.47;2.90;;;24.80;93.30;;;;;;4989155;28;20413;-65
2023/07/11 08:39:06;;;;;;;7.03;2.83;;;25.00;93.00;;;;;;5009243;28;20403;-65
2023/07/11 08:41:48;;;;;;;8.03;2.47;;;25.30;92.50;;;;;;5006452;28;20428;-65
2023/07/11 08:44:56;;;;;;;8.30;2.50;;;25.60;91.80;;;;;;5005573;28;20405;-65
2023/07/11 08:47:31;;;;;;;10.82;3.08;;;25.90;91.40;;;;;;5003629;28;20437;-65
2023/07/11 08:50:08;;;;;;;7.03;3.00;;;26.20;89.00;;;;;;5002816;28;20404;-64
2023/07/11 08:52:35;;;;;;;6.15;2.50;;;26.40;87.90;;;;;;4999932;28;20493;-69
2023/07/11 08:55:16;;;;;;;6.78;2.63;;;26.60;86.40;;;;;;5008621;28;20975;-65
2023/07/11 08:57:49;;;;;;;7.63;2.83;;;26.80;81.70;;;;;;4988709;28;20397;-69
2023/07/11 09:00:18;;;;;;;7.32;2.55;;;27.00;80.30;;;;;;4994417;28;20447;-65
2023/07/11 09:02:57;;;;;;;5.90;2.57;;;27.10;79.40;;;;;;4988142;28;20424;-70
2023/07/11 09:05:36;;;;;;;5.78;2.53;;;27.30;79.90;;;;;;5005679;28;20408;-65
2023/07/11 09:08:02;;;;;;;7.20;2.53;;;27.40;78.20;;;;;;5004446;28;20503;-64
2023/07/11 09:10:34;;;;;;;7.20;2.60;;;27.50;78.20;;;;;;5005951;28;20753;-66
2023/07/11 09:13:18;;;;;;;7.25;2.95;;;27.50;76.70;;;;;;5005380;28;20410;-71
2023/07/11 09:15:56;;;;;;;7.07;2.90;;;27.70;75.20;;;;;;4983213;28;20408;-67
2023/07/11 09:19:16;;;;;;;6.68;2.80;;;27.70;75.50;;;;;;5005724;28;20448;-65
2023/07/11 09:21:51;;;;;;;8.38;2.70;;;27.90;76.30;;;;;;4968657;28;20434;-65
2023/07/11 09:25:07;;;;;;;8.80;2.70;;;28.00;76.30;;;;;;5005146;28;20463;-69
2023/07/11 09:27:39;;;;;;;8.48;3.00;;;28.00;74.90;;;;;;5036558;28;20412;-68
2023/07/11 09:30:20;;;;;;;7.35;2.80;;;28.10;74.50;;;;;;5002181;28;20405;-70
2023/07/11 09:32:45;;;;;;;5.88;2.78;;;28.20;73.80;;;;;;4988690;28;20420;-65
2023/07/11 09:35:27;;;;;;;6.53;2.90;;;28.30;73.30;;;;;;4986387;28;20955;-65
2023/07/11 09:38:17;;;;;;;8.65;2.60;;;28.40;74.00;;;;;;5001500;28;20988;-64
2023/07/11 09:40:56;;;;;;;7.47;2.65;;;28.60;73.50;;;;;;5004141;28;20439;-64
2023/07/11 09:43:21;;;;;;;6.43;2.72;;;28.70;73.80;;;;;;5005085;28;20927;-64
2023/07/11 09:45:47;;;;;;;5.55;2.72;;;28.80;71.60;;;;;;5008603;28;20431;-68
2023/07/11 09:48:21;;;;;;;5.57;2.70;;;28.80;70.40;;;;;;5005727;28;20427;-64
2023/07/11 09:51:00;;;;;;;6.97;2.78;;;28.90;69.90;;;;;;4971142;28;20918;-64
2023/07/11 09:53:28;;;;;;;5.83;3.00;;;28.90;70.60;;;;;;4997824;28;20473;-65
2023/07/11 09:55:59;;;;;;;6.93;2.60;;;29.00;71.00;;;;;;5004443;28;20401;-64
2023/07/11 09:58:28;;;;;;;7.07;2.70;;;29.10;70.10;;;;;;4984761;28;20409;-64
2023/07/11 10:01:00;;;;;;;5.60;2.70;;;29.20;69.60;;;;;;5008880;28;20400;-64
2023/07/11 10:03:27;;;;;;;7.77;2.90;;;29.20;70.60;;;;;;5076012;28;20428;-66
2023/07/11 10:05:54;;;;;;;5.35;2.40;;;29.30;69.90;;;;;;5004372;28;20428;-66
2023/07/11 10:08:23;;;;;;;9.87;2.90;;;29.40;69.60;;;;;;4991931;28;20417;-66
2023/07/11 10:10:53;;;;;;;6.18;2.60;;;29.40;69.60;;;;;;5010564;28;20507;-66
2023/07/11 10:13:20;;;;;;;7.28;2.63;;;29.50;68.40;;;;;;5007669;28;20401;-66
2023/07/11 10:15:53;;;;;;;5.30;2.55;;;29.70;67.90;;;;;;4992729;28;20458;-66
2023/07/11 10:18:22;;;;;;;5.28;2.50;;;29.70;66.80;;;;;;5012300;28;20942;-66
2023/07/11 10:20:51;;;;;;;5.65;2.60;;;29.60;67.40;;;;;;5076587;28;20420;-66
2023/07/11 10:23:22;;;;;;;6.20;2.60;;;29.60;68.00;;;;;;5075641;28;20938;-66
2023/07/11 10:25:54;;;;;;;6.35;2.42;;;29.80;67.90;;;;;;5015938;28;20419;-67
2023/07/11 10:28:29;;;;;;;5.13;2.40;;;29.90;67.30;;;;;;5074150;28;20436;-66
2023/07/11 10:30:58;;;;;;;6.35;2.30;;;30.00;66.40;;;;;;5004499;28;20912;-67
2023/07/11 10:33:29;;;;;;;7.28;2.70;;;30.00;66.70;;;;;;4984541;28;20397;-64
2023/07/11 10:36:07;;;;;;;5.40;2.40;;;30.10;66.40;;;;;;5006502;28;20469;-64
2023/07/11 10:38:54;;;;;;;5.82;2.42;;;30.20;65.60;;;;;;4991414;28;20926;-72
2023/07/11 10:41:29;;;;;;;6.70;2.40;;;30.30;66.50;;;;;;5011583;28;20424;-64
2023/07/11 10:43:55;;;;;;;5.72;2.72;;;30.20;65.70;;;;;;4992481;28;20484;-64
2023/07/11 10:46:35;;;;;;;6.60;2.35;;;30.30;66.50;;;;;;5007981;28;20874;-68
2023/07/11 10:49:08;;;;;;;5.88;2.50;;;30.40;64.60;;;;;;4994696;28;20449;-64
2023/07/11 10:51:43;;;;;;;6.65;2.72;;;30.30;64.80;;;;;;5001451;28;20420;-64
2023/07/11 10:54:21;;;;;;;5.85;2.30;;;30.30;64.60;;;;;;5007860;28;20469;-64
2023/07/11 10:56:50;;;;;;;5.57;2.38;;;30.30;66.90;;;;;;4990552;28;20413;-64
2023/07/11 10:59:22;;;;;;;6.63;2.50;;;30.40;65.70;;;;;;4988670;28;20934;-65
2023/07/11 11:02:18;;;;;;;4.93;2.20;;;30.40;65.80;;;;;;4985394;28;20456;-71
2023/07/11 11:05:16;;;;;;;4.90;2.40;;;30.50;65.20;;;;;;4986722;28;20413;-66
2023/07/11 11:07:47;;;;;;;5.85;2.42;;;30.60;63.90;;;;;;5002774;28;20728;-65
2023/07/11 11:10:31;;;;;;;7.63;2.60;;;30.60;63.60;;;;;;5007700;28;20883;-64
2023/07/11 11:13:34;;;;;;;6.18;2.40;;;30.70;63.40;;;;;;4979961;28;20413;-65
2023/07/11 11:16:14;;;;;;;7.95;2.53;;;30.70;62.70;;;;;;4991107;28;20433;-68
2023/07/11 11:19:30;;;;;;;6.43;2.40;;;30.70;63.40;;;;;;5007229;28;20488;-65
2023/07/11 11:22:08;;;;;;;4.47;2.53;;;30.60;63.90;;;;;;5010296;28;20744;-64
2023/07/11 11:24:58;;;;;;;5.30;2.53;;;30.50;62.00;;;;;;4973110;28;21461;-64
2023/07/11 11:27:46;;;;;;;6.33;2.60;;;30.60;62.80;;;;;;4999650;28;20401;-66
2023/07/11 11:30:33;;;;;;;8.80;2.70;;;30.60;63.00;;;;;;5006140;28;20423;-64
2023/07/11 11:32:59;;;;;;;5.68;2.63;;;30.80;62.10;;;;;;5006131;28;20405;-64
2023/07/11 11:35:39;;;;;;;6.27;2.90;;;31.00;61.10;;;;;;4989071;28;20760;-64
2023/07/11 11:38:19;;;;;;;7.22;2.60;;;31.20;59.30;;;;;;5008156;28;20401;-67
2023/07/11 11:40:49;;;;;;;6.30;2.78;;;31.20;59.50;;;;;;5006803;28;20401;-65
2023/07/11 11:43:17;;;;;;;5.35;2.60;;;31.20;60.80;;;;;;4989260;28;20766;-67
2023/07/11 11:45:44;;;;;;;5.13;2.33;;;31.40;59.60;;;;;;5008518;28;20828;-64
2023/07/11 11:48:19;;;;;;;5.50;2.50;;;31.20;59.80;;;;;;5003202;28;20413;-64
2023/07/11 11:50:46;;;;;;;6.35;2.78;;;31.30;59.70;;;;;;5007296;28;20805;-64
2023/07/11 11:53:22;;;;;;;5.20;2.90;;;31.20;59.80;;;;;;5006474;28;20407;-64
2023/07/11 11:56:07;;;;;;;7.55;2.67;;;30.90;59.30;;;;;;5006816;28;20911;-65
2023/07/11 11:58:39;;;;;;;5.57;2.58;;;30.70;60.20;;;;;;4973283;28;20397;-67
2023/07/11 12:01:04;;;;;;;7.90;2.72;;;30.40;61.40;;;;;;5005728;28;20397;-67
2023/07/11 12:03:50;;;;;;;4.53;2.70;;;30.20;60.80;;;;;;5006101;28;20492;-64
2023/07/11 12:06:34;;;;;;;5.28;2.75;;;30.10;60.90;;;;;;5010372;28;20407;-64
2023/07/11 12:09:23;;;;;;;6.88;2.78;;;30.10;61.40;;;;;;5007986;28;20403;-64
2023/07/11 12:12:10;;;;;;;4.60;2.60;;;29.90;61.80;;;;;;5010410;28;20468;-68
2023/07/11 12:14:37;;;;;;;7.70;2.80;;;29.50;62.70;;;;;;5000368;28;20424;-65
2023/07/11 12:17:04;;;;;;;5.47;2.65;;;29.50;62.50;;;;;;5072171;28;20755;-64
2023/07/11 12:19:38;;;;;;;7.88;2.63;;;29.40;63.20;;;;;;5007960;28;20413;-67
2023/07/11 12:22:06;;;;;;;5.38;2.60;;;29.30;65.20;;;;;;5004208;28;20512;-64
2023/07/11 12:24:32;;;;;;;7.10;2.80;;;29.30;65.10;;;;;;5005386;28;20417;-64
2023/07/11 12:27:20;;;;;;;6.72;2.92;;;29.10;63.90;;;;;;4995867;28;20916;-69
2023/07/11 12:29:46;;;;;;;7.50;2.85;;;29.10;65.10;;;;;;4996607;28;20414;-64
2023/07/11 12:32:33;;;;;;;6.07;2.90;;;29.10;65.30;;;;;;5004714;28;20978;-69
2023/07/11 12:35:05;;;;;;;8.10;3.10;;;29.40;66.10;;;;;;4992565;28;20835;-64
2023/07/11 12:37:36;;;;;;;4.28;2.80;;;29.50;65.40;;;;;;4989522;28;20930;-64
2023/07/11 12:40:19;;;;;;;8.50;2.80;;;29.70;65.50;;;;;;4989033;28;20436;-66
2023/07/11 12:42:54;;;;;;;5.68;3.08;;;29.70;64.80;;;;;;4988770;28;20439;-64
2023/07/11 12:45:24;;;;;;;8.88;2.78;;;29.80;65.70;;;;;;5007415;28;20770;-64
2023/07/11 12:48:13;;;;;;;6.07;2.80;;;30.00;64.70;;;;;;5006098;28;20778;-66
2023/07/11 12:50:49;;;;;;;5.97;3.00;;;29.90;63.70;;;;;;4981151;28;20413;-66
2023/07/11 12:53:16;;;;;;;5.38;2.90;;;30.00;64.60;;;;;;4992549;28;20455;-64
2023/07/11 12:55:47;;;;;;;5.50;2.73;;;30.10;63.40;;;;;;5004005;28;20424;-65
2023/07/11 12:58:28;;;;;;;6.70;2.65;;;30.20;62.50;;;;;;4987115;28;20449;-66